GRZ510 Details

Departure: Denver International Airport (KDEN)
Arrival: Ted Stevens Anchorage International Airport (PANC)
Route: RIKKK4 FISAR BIL J13 GTF J569 DORSE 52N20 RIBIT AKTEX 59N40 JOH WITTI4


Current Weather Information
KDEN 191553Z 27005KT 10SM FEW080 FEW120 SCT220 29/01 A3014 RMK AO2 SLP111 T02940011 $
PANC 191553Z 00000KT 10SM BKN025 BKN200 09/02 A2995 RMK AO2 SLP142 FU BKN025 T00890022